createdAt,value
2018-10-06T00:00:58.708Z,1006.90
2018-10-06T00:01:58.674Z,1006.90
2018-10-06T00:02:58.642Z,1006.92
2018-10-06T00:03:58.610Z,1006.92
2018-10-06T00:04:58.569Z,1006.90
2018-10-06T00:05:58.539Z,1006.89
2018-10-06T00:06:58.501Z,1006.87
2018-10-06T00:07:58.470Z,1006.89
2018-10-06T00:08:58.444Z,1006.84
2018-10-06T00:09:58.402Z,1006.83
2018-10-06T00:10:58.369Z,1006.84
2018-10-06T00:11:58.331Z,1006.84
2018-10-06T00:12:58.301Z,1006.85
2018-10-06T00:13:58.275Z,1006.85
2018-10-06T00:14:58.227Z,1006.87
2018-10-06T00:15:58.198Z,1006.85
2018-10-06T00:16:58.162Z,1006.82
2018-10-06T00:17:58.128Z,1006.79
2018-10-06T00:18:58.103Z,1006.83
2018-10-06T00:19:58.062Z,1006.84
2018-10-06T00:20:58.030Z,1006.81
2018-10-06T00:21:57.996Z,1006.77
2018-10-06T00:22:57.955Z,1006.78
2018-10-06T00:23:57.929Z,1006.75
2018-10-06T00:24:57.891Z,1006.76
2018-10-06T00:25:57.867Z,1006.74
2018-10-06T00:26:57.824Z,1006.72
2018-10-06T00:27:57.784Z,1006.71
2018-10-06T00:28:57.764Z,1006.76
2018-10-06T00:29:57.718Z,1006.74
2018-10-06T00:30:57.685Z,1006.74
2018-10-06T00:31:57.656Z,1006.73
2018-10-06T00:32:57.616Z,1006.71
2018-10-06T00:33:57.595Z,1006.72
2018-10-06T00:34:57.548Z,1006.71
2018-10-06T00:35:57.513Z,1006.70
2018-10-06T00:36:57.480Z,1006.72
2018-10-06T00:37:57.443Z,1006.68
2018-10-06T00:38:57.632Z,1006.71
2018-10-06T00:39:57.381Z,1006.68
2018-10-06T00:40:57.356Z,1006.73
2018-10-06T00:41:57.321Z,1006.65
2018-10-06T00:42:57.271Z,1006.67
2018-10-06T00:43:57.247Z,1006.60
2018-10-06T00:44:57.204Z,1006.65
2018-10-06T00:45:57.173Z,1006.68
2018-10-06T00:46:57.135Z,1006.65
2018-10-06T00:47:57.100Z,1006.66
2018-10-06T00:48:57.080Z,1006.62
2018-10-06T00:49:57.036Z,1006.65
2018-10-06T00:50:57.002Z,1006.64
2018-10-06T00:51:56.964Z,1006.64
2018-10-06T00:52:56.933Z,1006.67
2018-10-06T00:53:56.920Z,1006.60
2018-10-06T00:54:56.861Z,1006.59
2018-10-06T00:55:56.829Z,1006.57
2018-10-06T00:56:56.802Z,1006.59
2018-10-06T00:57:56.759Z,1006.56
2018-10-06T00:58:56.724Z,1006.55
2018-10-06T00:59:56.699Z,1006.52
2018-10-06T01:00:56.655Z,1006.53
2018-10-06T01:01:56.625Z,1006.55
2018-10-06T01:02:56.592Z,1006.54
2018-10-06T01:03:56.556Z,1006.54
2018-10-06T01:04:56.529Z,1006.56
2018-10-06T01:05:56.484Z,1006.52
2018-10-06T01:06:56.463Z,1006.54
2018-10-06T01:07:56.417Z,1006.49
2018-10-06T01:08:56.385Z,1006.50
2018-10-06T01:09:56.357Z,1006.54
2018-10-06T01:10:56.316Z,1006.50
2018-10-06T01:11:56.279Z,1006.48
2018-10-06T01:12:56.247Z,1006.43
2018-10-06T01:13:56.210Z,1006.43
2018-10-06T01:14:56.196Z,1006.44
2018-10-06T01:15:56.138Z,1006.42
2018-10-06T01:16:56.105Z,1006.41
2018-10-06T01:17:56.078Z,1006.41
2018-10-06T01:18:56.037Z,1006.40
2018-10-06T01:19:56.004Z,1006.39
2018-10-06T01:20:55.974Z,1006.43
2018-10-06T01:21:55.934Z,1006.36
2018-10-06T01:22:55.898Z,1006.38
2018-10-06T01:23:55.870Z,1006.39
2018-10-06T01:24:55.828Z,1006.37
2018-10-06T01:25:56.149Z,1006.33
2018-10-06T01:26:55.768Z,1006.38
2018-10-06T01:27:55.747Z,1006.30
2018-10-06T01:28:55.775Z,1006.29
2018-10-06T01:29:55.738Z,1006.28
2018-10-06T01:30:55.645Z,1006.31
2018-10-06T01:31:55.590Z,1006.27
2018-10-06T01:32:55.553Z,1006.27
2018-10-06T01:33:55.521Z,1006.28
2018-10-06T01:34:55.483Z,1006.29
2018-10-06T01:35:55.460Z,1006.27
2018-10-06T01:36:55.415Z,1006.30
2018-10-06T01:37:55.384Z,1006.26
2018-10-06T01:38:55.347Z,1006.26
2018-10-06T01:39:55.312Z,1006.25
2018-10-06T01:40:55.286Z,1006.23
2018-10-06T01:41:55.241Z,1006.25
2018-10-06T01:42:55.212Z,1006.25
2018-10-06T01:43:55.176Z,1006.23
2018-10-06T01:44:55.139Z,1006.22
2018-10-06T01:45:55.110Z,1006.21
2018-10-06T01:46:55.066Z,1006.20
2018-10-06T01:47:55.034Z,1006.21
2018-10-06T01:48:55.002Z,1006.16
2018-10-06T01:49:55.003Z,1006.14
2018-10-06T01:50:54.984Z,1006.10
2018-10-06T01:51:54.894Z,1006.11
2018-10-06T01:52:54.862Z,1006.10
2018-10-06T01:53:54.826Z,1006.11
2018-10-06T01:54:54.792Z,1006.06
2018-10-06T01:55:54.764Z,1006.07
2018-10-06T01:56:54.725Z,1006.08
2018-10-06T01:57:54.689Z,1006.06
2018-10-06T01:58:54.653Z,1006.05
2018-10-06T01:59:54.616Z,1006.04
2018-10-06T02:00:54.593Z,1006.03
2018-10-06T02:01:54.549Z,1006.01
2018-10-06T02:02:54.520Z,1006.04
2018-10-06T02:03:54.480Z,1006.02
2018-10-06T02:04:54.448Z,1006.04
2018-10-06T02:05:54.420Z,1005.94
2018-10-06T02:06:54.373Z,1005.92
2018-10-06T02:07:54.342Z,1005.93
2018-10-06T02:08:54.309Z,1005.89
2018-10-06T02:09:54.271Z,1005.87
2018-10-06T02:10:54.254Z,1005.89
2018-10-06T02:11:54.209Z,1005.90
2018-10-06T02:12:54.169Z,1005.83
2018-10-06T02:13:54.134Z,1005.84
2018-10-06T02:14:54.097Z,1005.84
2018-10-06T02:15:54.081Z,1005.83
2018-10-06T02:16:54.027Z,1005.85
2018-10-06T02:17:53.999Z,1005.79
2018-10-06T02:18:53.958Z,1005.81
2018-10-06T02:19:53.923Z,1005.82
2018-10-06T02:20:53.892Z,1005.72
2018-10-06T02:21:53.866Z,1005.76
2018-10-06T02:22:53.822Z,1005.77
2018-10-06T02:23:53.784Z,1005.76
2018-10-06T02:24:53.749Z,1005.72
2018-10-06T02:25:53.715Z,1005.74
2018-10-06T02:26:53.687Z,1005.72
2018-10-06T02:27:53.645Z,1005.74
2018-10-06T02:28:53.608Z,1005.73
2018-10-06T02:29:53.603Z,1005.77
2018-10-06T02:30:53.543Z,1005.76
2018-10-06T02:31:53.514Z,1005.76
2018-10-06T02:32:53.470Z,1005.77
2018-10-06T02:33:53.442Z,1005.80
2018-10-06T02:34:53.400Z,1005.76
2018-10-06T02:35:53.381Z,1005.77
2018-10-06T02:36:53.412Z,1005.75
2018-10-06T02:37:53.297Z,1005.75
2018-10-06T02:38:53.264Z,1005.74
2018-10-06T02:39:53.225Z,1005.74
2018-10-06T02:40:53.198Z,1005.78
2018-10-06T02:41:53.170Z,1005.80
2018-10-06T02:42:53.120Z,1005.80
2018-10-06T02:43:53.089Z,1005.84
2018-10-06T02:44:53.051Z,1005.80
2018-10-06T02:45:53.017Z,1005.81
2018-10-06T02:46:52.994Z,1005.84
2018-10-06T02:47:52.945Z,1005.89
2018-10-06T02:48:52.915Z,1005.89
2018-10-06T02:49:52.876Z,1005.89
2018-10-06T02:50:52.841Z,1005.90
2018-10-06T02:51:52.819Z,1005.88
2018-10-06T02:52:52.771Z,1005.90
2018-10-06T02:53:52.741Z,1005.88
2018-10-06T02:54:52.706Z,1005.88
2018-10-06T02:55:52.671Z,1005.91
2018-10-06T02:56:52.641Z,1005.88
2018-10-06T02:57:52.600Z,1005.88
2018-10-06T02:58:52.563Z,1005.88
2018-10-06T02:59:52.541Z,1005.87
2018-10-06T03:00:52.492Z,1005.87
2018-10-06T03:01:52.504Z,1005.84
2018-10-06T03:02:52.444Z,1005.83
2018-10-06T03:03:52.416Z,1005.84
2018-10-06T03:04:52.386Z,1005.81
2018-10-06T03:05:52.340Z,1005.80
2018-10-06T03:06:52.306Z,1005.78
2018-10-06T03:07:52.251Z,1005.77
2018-10-06T03:08:52.224Z,1005.78
2018-10-06T03:09:52.201Z,1005.79
2018-10-06T03:10:52.168Z,1005.76
2018-10-06T03:11:52.123Z,1005.72
2018-10-06T03:12:52.088Z,1005.72
2018-10-06T03:13:52.068Z,1005.73
2018-10-06T03:14:52.022Z,1005.73
2018-10-06T03:15:51.979Z,1005.76
2018-10-06T03:16:51.960Z,1005.73
2018-10-06T03:17:51.915Z,1005.76
2018-10-06T03:18:51.879Z,1005.74
2018-10-06T03:19:51.824Z,1005.73
2018-10-06T03:20:51.792Z,1005.72
2018-10-06T03:21:51.776Z,1005.73
2018-10-06T03:22:51.722Z,1005.71
2018-10-06T03:23:51.690Z,1005.65
2018-10-06T03:24:51.647Z,1005.70
2018-10-06T03:25:51.616Z,1005.66
2018-10-06T03:26:51.587Z,1005.65
2018-10-06T03:27:51.543Z,1005.62
2018-10-06T03:28:51.518Z,1005.58
2018-10-06T03:29:51.474Z,1005.61
2018-10-06T03:30:51.442Z,1005.60
2018-10-06T03:31:51.423Z,1005.57
2018-10-06T03:32:51.366Z,1005.56
2018-10-06T03:33:51.333Z,1005.54
2018-10-06T03:34:51.308Z,1005.51
2018-10-06T03:35:51.264Z,1005.54
2018-10-06T03:36:51.228Z,1005.55
2018-10-06T03:37:51.203Z,1005.56
2018-10-06T03:38:51.156Z,1005.52
2018-10-06T03:39:51.119Z,1005.54
2018-10-06T03:40:51.086Z,1005.55
2018-10-06T03:41:51.049Z,1005.57
2018-10-06T03:42:51.023Z,1005.54
2018-10-06T03:43:50.978Z,1005.49
2018-10-06T03:44:50.948Z,1005.52
2018-10-06T03:45:50.911Z,1005.54
2018-10-06T03:46:50.878Z,1005.48
2018-10-06T03:47:50.851Z,1005.46
2018-10-06T03:48:50.802Z,1005.44
2018-10-06T03:49:50.772Z,1005.44
2018-10-06T03:50:50.733Z,1005.48
2018-10-06T03:51:50.699Z,1005.46
2018-10-06T03:52:50.673Z,1005.47
2018-10-06T03:53:50.667Z,1005.47
2018-10-06T03:54:50.594Z,1005.43
2018-10-06T03:55:50.556Z,1005.36
2018-10-06T03:56:50.522Z,1005.35
2018-10-06T03:57:50.505Z,1005.38
2018-10-06T03:58:50.450Z,1005.32
2018-10-06T03:59:50.416Z,1005.32
2018-10-06T04:00:50.380Z,1005.28
2018-10-06T04:01:51.195Z,1005.29
2018-10-06T04:02:50.308Z,1005.35
2018-10-06T04:03:50.283Z,1005.34
2018-10-06T04:04:50.239Z,1005.31
2018-10-06T04:05:50.206Z,1005.28
2018-10-06T04:06:50.165Z,1005.28
2018-10-06T04:07:50.126Z,1005.25
2018-10-06T04:08:50.105Z,1005.22
2018-10-06T04:09:50.061Z,1005.27
2018-10-06T04:10:50.034Z,1005.28
2018-10-06T04:11:49.993Z,1005.23
2018-10-06T04:12:49.958Z,1005.28
2018-10-06T04:13:49.934Z,1005.26
2018-10-06T04:14:49.882Z,1005.30
2018-10-06T04:15:49.850Z,1005.27
2018-10-06T04:16:49.824Z,1005.28
2018-10-06T04:17:49.777Z,1005.24
2018-10-06T04:18:49.751Z,1005.21
2018-10-06T04:19:49.711Z,1005.22
2018-10-06T04:20:49.671Z,1005.22
2018-10-06T04:21:49.643Z,1005.26
2018-10-06T04:22:49.606Z,1005.27
2018-10-06T04:23:49.588Z,1005.26
2018-10-06T04:24:49.538Z,1005.22
2018-10-06T04:25:49.497Z,1005.25
2018-10-06T04:26:49.460Z,1005.20
2018-10-06T04:27:49.429Z,1005.19
2018-10-06T04:28:49.390Z,1005.18
2018-10-06T04:29:49.368Z,1005.17
2018-10-06T04:30:49.317Z,1005.16
2018-10-06T04:31:49.283Z,1005.13
2018-10-06T04:32:49.245Z,1005.11
2018-10-06T04:33:49.216Z,1005.08
2018-10-06T04:34:49.186Z,1005.06
2018-10-06T04:35:49.143Z,1005.07
2018-10-06T04:36:49.106Z,1005.03
2018-10-06T04:37:49.074Z,1005.06
2018-10-06T04:38:49.033Z,1005.04
2018-10-06T04:39:49.014Z,1005.02
2018-10-06T04:40:48.976Z,1005.04
2018-10-06T04:41:48.930Z,1005.03
2018-10-06T04:42:48.891Z,1005.01
2018-10-06T04:43:48.860Z,1004.99
2018-10-06T04:44:48.822Z,1004.99
2018-10-06T04:45:48.800Z,1004.97
2018-10-06T04:46:48.751Z,1004.94
2018-10-06T04:47:48.714Z,1004.93
2018-10-06T04:48:48.679Z,1004.88
2018-10-06T04:49:48.644Z,1004.95
2018-10-06T04:50:48.619Z,1004.95
2018-10-06T04:51:48.575Z,1004.91
2018-10-06T04:52:48.541Z,1004.87
2018-10-06T04:53:48.504Z,1004.91
2018-10-06T04:54:48.467Z,1004.88
2018-10-06T04:55:48.446Z,1004.90
2018-10-06T04:56:48.390Z,1004.90
2018-10-06T04:57:48.362Z,1004.90
2018-10-06T04:58:48.324Z,1004.90
2018-10-06T04:59:48.288Z,1004.85
2018-10-06T05:00:48.261Z,1004.88
2018-10-06T05:01:48.222Z,1004.85
2018-10-06T05:02:48.177Z,1004.87
2018-10-06T05:03:48.145Z,1004.83
2018-10-06T05:04:48.112Z,1004.85
2018-10-06T05:05:48.084Z,1004.84
2018-10-06T05:06:48.042Z,1004.82
2018-10-06T05:07:48.005Z,1004.80
2018-10-06T05:08:47.973Z,1004.77
2018-10-06T05:09:47.933Z,1004.76
2018-10-06T05:10:47.905Z,1004.75
2018-10-06T05:11:47.863Z,1004.75
2018-10-06T05:12:47.826Z,1004.72
2018-10-06T05:13:47.792Z,1004.71
2018-10-06T05:14:47.752Z,1004.73
2018-10-06T05:15:47.732Z,1004.70
2018-10-06T05:16:47.691Z,1004.71
2018-10-06T05:17:47.647Z,1004.65
2018-10-06T05:18:47.613Z,1004.71
2018-10-06T05:19:47.576Z,1004.70
2018-10-06T05:20:47.539Z,1004.66
2018-10-06T05:21:47.523Z,1004.69
2018-10-06T05:22:47.476Z,1004.66
2018-10-06T05:23:47.434Z,1004.63
2018-10-06T05:24:47.398Z,1004.61
2018-10-06T05:25:47.360Z,1004.64
2018-10-06T05:26:47.334Z,1004.65
2018-10-06T05:27:47.357Z,1004.65
2018-10-06T05:28:47.261Z,1004.68
2018-10-06T05:29:47.222Z,1004.68
2018-10-06T05:30:47.182Z,1004.72
2018-10-06T05:31:47.155Z,1004.68
2018-10-06T05:32:47.122Z,1004.70
2018-10-06T05:33:47.081Z,1004.69
2018-10-06T05:34:47.038Z,1004.76
2018-10-06T05:35:47.004Z,1004.74
2018-10-06T05:36:46.989Z,1004.72
2018-10-06T05:37:46.932Z,1004.70
2018-10-06T05:38:46.894Z,1004.67
2018-10-06T05:39:46.878Z,1004.69
2018-10-06T05:40:46.831Z,1004.72
2018-10-06T05:41:46.788Z,1004.71
2018-10-06T05:42:46.761Z,1004.66
2018-10-06T05:43:46.715Z,1004.63
2018-10-06T05:44:46.680Z,1004.65
2018-10-06T05:45:46.650Z,1004.64
2018-10-06T05:46:46.608Z,1004.66
2018-10-06T05:47:46.585Z,1004.66
2018-10-06T05:48:46.538Z,1004.66
2018-10-06T05:49:46.502Z,1004.69
2018-10-06T05:50:46.465Z,1004.66
2018-10-06T05:51:46.435Z,1004.68
2018-10-06T05:52:46.407Z,1004.63
2018-10-06T05:53:46.359Z,1004.63
2018-10-06T05:54:46.325Z,1004.67
2018-10-06T05:55:46.287Z,1004.65
2018-10-06T05:56:46.256Z,1004.63
2018-10-06T05:57:46.228Z,1004.62
2018-10-06T05:58:46.176Z,1004.60
2018-10-06T05:59:46.148Z,1004.62
2018-10-06T06:00:46.112Z,1004.59
2018-10-06T06:01:46.073Z,1004.60
2018-10-06T06:02:46.068Z,1004.58
2018-10-06T06:03:46.005Z,1004.59
2018-10-06T06:04:45.964Z,1004.59
2018-10-06T06:05:45.928Z,1004.57
2018-10-06T06:06:45.893Z,1004.58
2018-10-06T06:07:45.856Z,1004.63
2018-10-06T06:08:45.829Z,1004.61
2018-10-06T06:09:45.828Z,1004.62
2018-10-06T06:10:45.753Z,1004.60
2018-10-06T06:11:45.717Z,1004.61
2018-10-06T06:12:45.680Z,1004.58
2018-10-06T06:13:45.650Z,1004.63
2018-10-06T06:14:45.607Z,1004.59
2018-10-06T06:15:45.615Z,1004.57
2018-10-06T06:16:45.534Z,1004.57
2018-10-06T06:17:45.500Z,1004.55
2018-10-06T06:18:45.471Z,1004.55
2018-10-06T06:19:45.429Z,1004.54
2018-10-06T06:20:45.394Z,1004.55
2018-10-06T06:21:45.357Z,1004.57
2018-10-06T06:22:45.322Z,1004.55
2018-10-06T06:23:45.341Z,1004.55
2018-10-06T06:24:45.249Z,1004.58
2018-10-06T06:25:45.217Z,1004.54
2018-10-06T06:26:45.178Z,1004.50
2018-10-06T06:27:45.152Z,1004.51
2018-10-06T06:28:45.129Z,1004.47
2018-10-06T06:29:45.072Z,1004.53
2018-10-06T06:30:45.094Z,1004.47
2018-10-06T06:31:45.002Z,1004.53
2018-10-06T06:32:44.972Z,1004.50
2018-10-06T06:33:44.930Z,1004.48
2018-10-06T06:34:44.901Z,1004.51
2018-10-06T06:35:44.872Z,1004.53
2018-10-06T06:36:44.824Z,1004.57
2018-10-06T06:37:44.786Z,1004.55
2018-10-06T06:38:44.751Z,1004.56
2018-10-06T06:39:44.726Z,1004.56
2018-10-06T06:40:44.697Z,1004.58
2018-10-06T06:41:44.646Z,1004.58
2018-10-06T06:42:44.610Z,1004.61
2018-10-06T06:43:44.665Z,1004.62
2018-10-06T06:44:44.554Z,1004.59
2018-10-06T06:45:44.504Z,1004.59
2018-10-06T06:46:44.465Z,1004.60
2018-10-06T06:47:44.433Z,1004.60
2018-10-06T06:48:44.449Z,1004.62
2018-10-06T06:49:44.378Z,1004.64
2018-10-06T06:50:44.327Z,1004.62
2018-10-06T06:51:44.315Z,1004.60
2018-10-06T06:52:44.260Z,1004.55
2018-10-06T06:53:44.227Z,1004.60
2018-10-06T06:54:44.206Z,1004.58
2018-10-06T06:55:44.155Z,1004.59
2018-10-06T06:56:44.118Z,1004.61
2018-10-06T06:57:44.090Z,1004.59
2018-10-06T06:58:44.050Z,1004.59
2018-10-06T06:59:44.016Z,1004.59
2018-10-06T07:00:43.984Z,1004.57
2018-10-06T07:01:43.955Z,1004.59
2018-10-06T07:02:43.912Z,1004.61
2018-10-06T07:03:43.878Z,1004.62
2018-10-06T07:04:43.844Z,1004.60
2018-10-06T07:05:43.841Z,1004.59
2018-10-06T07:06:43.769Z,1004.61
2018-10-06T07:07:43.741Z,1004.59
2018-10-06T07:08:43.698Z,1004.59
2018-10-06T07:09:43.661Z,1004.58
2018-10-06T07:10:43.640Z,1004.52
2018-10-06T07:11:43.617Z,1004.51
2018-10-06T07:12:43.650Z,1004.56
2018-10-06T07:13:43.528Z,1004.55
2018-10-06T07:14:43.504Z,1004.55
2018-10-06T07:15:43.463Z,1004.60
2018-10-06T07:16:43.422Z,1004.61
2018-10-06T07:17:43.394Z,1004.59
2018-10-06T07:18:43.358Z,1004.59
2018-10-06T07:19:43.316Z,1004.59
2018-10-06T07:20:43.296Z,1004.55
2018-10-06T07:21:43.247Z,1004.53
2018-10-06T07:22:43.219Z,1004.53
2018-10-06T07:23:43.179Z,1004.51
2018-10-06T07:24:43.149Z,1004.48
2018-10-06T07:25:43.108Z,1004.47
2018-10-06T07:26:43.299Z,1004.46
2018-10-06T07:27:43.054Z,1004.45
2018-10-06T07:28:43.006Z,1004.43
2018-10-06T07:29:42.970Z,1004.43
2018-10-06T07:30:42.936Z,1004.44
2018-10-06T07:31:42.912Z,1004.39
2018-10-06T07:32:42.874Z,1004.40
2018-10-06T07:33:42.839Z,1004.38
2018-10-06T07:34:42.801Z,1004.37
2018-10-06T07:35:42.766Z,1004.38
2018-10-06T07:36:42.749Z,1004.36
2018-10-06T07:37:42.702Z,1004.39
2018-10-06T07:38:42.665Z,1004.34
2018-10-06T07:39:42.629Z,1004.32
2018-10-06T07:40:42.595Z,1004.34
2018-10-06T07:41:42.576Z,1004.39
2018-10-06T07:42:42.529Z,1004.34
2018-10-06T07:43:42.495Z,1004.34
2018-10-06T07:44:42.523Z,1004.36
2018-10-06T07:45:42.428Z,1004.36
2018-10-06T07:46:42.404Z,1004.37
2018-10-06T07:47:42.357Z,1004.38
2018-10-06T07:48:42.329Z,1004.37
2018-10-06T07:49:42.296Z,1004.37
2018-10-06T07:50:42.258Z,1004.40
2018-10-06T07:51:42.234Z,1004.40
2018-10-06T07:52:42.191Z,1004.41
2018-10-06T07:53:42.159Z,1004.37
2018-10-06T07:54:42.124Z,1004.35
2018-10-06T07:55:42.100Z,1004.33
2018-10-06T07:56:42.118Z,1004.31
2018-10-06T07:57:42.035Z,1004.31
2018-10-06T07:58:41.991Z,1004.27
2018-10-06T07:59:41.957Z,1004.29
2018-10-06T08:00:41.928Z,1004.31
2018-10-06T08:01:41.892Z,1004.27
2018-10-06T08:02:41.863Z,1004.29
2018-10-06T08:03:41.825Z,1004.30
2018-10-06T08:04:41.793Z,1004.24
2018-10-06T08:05:41.758Z,1004.24
2018-10-06T08:06:41.722Z,1004.25
2018-10-06T08:07:41.702Z,1004.21
2018-10-06T08:08:41.665Z,1004.25
2018-10-06T08:09:41.632Z,1004.23
2018-10-06T08:10:41.588Z,1004.21
2018-10-06T08:11:41.558Z,1004.19
2018-10-06T08:12:41.535Z,1004.14
2018-10-06T08:13:41.497Z,1004.16
2018-10-06T08:14:41.468Z,1004.15
2018-10-06T08:15:41.424Z,1004.15
2018-10-06T08:16:41.394Z,1004.12
2018-10-06T08:17:41.372Z,1004.13
2018-10-06T08:18:41.330Z,1004.09
2018-10-06T08:19:41.295Z,1004.15
2018-10-06T08:20:41.266Z,1004.10
2018-10-06T08:21:41.230Z,1004.10
2018-10-06T08:22:41.218Z,1004.09
2018-10-06T08:23:41.162Z,1004.05
2018-10-06T08:24:41.136Z,1003.99
2018-10-06T08:25:41.099Z,1004.03
2018-10-06T08:26:41.080Z,1004.04
2018-10-06T08:27:41.048Z,1004.03
2018-10-06T08:28:41.008Z,1004.00
2018-10-06T08:29:40.968Z,1004.00
2018-10-06T08:30:40.945Z,1003.95
2018-10-06T08:31:40.907Z,1003.96
2018-10-06T08:32:40.882Z,1003.96
2018-10-06T08:33:40.842Z,1003.95
2018-10-06T08:34:40.822Z,1003.95
2018-10-06T08:35:40.782Z,1003.88
2018-10-06T08:36:40.745Z,1003.94
2018-10-06T08:37:40.731Z,1003.92
2018-10-06T08:38:40.736Z,1003.95
2018-10-06T08:39:40.652Z,1003.94
2018-10-06T08:40:40.623Z,1003.91
2018-10-06T08:41:40.584Z,1003.88
2018-10-06T08:42:40.610Z,1003.87
2018-10-06T08:43:40.529Z,1003.87
2018-10-06T08:44:40.484Z,1003.89
2018-10-06T08:45:40.456Z,1003.80
2018-10-06T08:46:40.430Z,1003.81
2018-10-06T08:47:40.392Z,1003.80
2018-10-06T08:48:40.371Z,1003.80
2018-10-06T08:49:40.334Z,1003.79
2018-10-06T08:50:40.305Z,1003.78
2018-10-06T08:51:40.268Z,1003.80
2018-10-06T08:52:40.235Z,1003.78
2018-10-06T08:53:40.219Z,1003.78
2018-10-06T08:54:40.176Z,1003.76
2018-10-06T08:55:40.142Z,1003.77
2018-10-06T08:56:40.110Z,1003.80
2018-10-06T08:57:40.079Z,1003.78
2018-10-06T08:58:40.053Z,1003.78
2018-10-06T08:59:40.017Z,1003.79
2018-10-06T09:00:39.987Z,1003.73
2018-10-06T09:01:39.965Z,1003.71
2018-10-06T09:02:39.920Z,1003.69
2018-10-06T09:03:39.906Z,1003.70
2018-10-06T09:04:39.858Z,1003.68
2018-10-06T09:05:39.827Z,1003.66
2018-10-06T09:06:39.796Z,1003.63
2018-10-06T09:07:39.765Z,1003.59
2018-10-06T09:08:39.742Z,1003.61
2018-10-06T09:09:39.703Z,1003.57
2018-10-06T09:10:39.665Z,1003.54
2018-10-06T09:11:39.641Z,1003.56
2018-10-06T09:12:39.610Z,1003.54
2018-10-06T09:13:39.590Z,1003.49
2018-10-06T09:14:39.543Z,1003.57
2018-10-06T09:15:39.516Z,1003.59
2018-10-06T09:16:39.486Z,1003.62
2018-10-06T09:17:39.456Z,1003.65
2018-10-06T09:18:39.434Z,1003.63
2018-10-06T09:19:39.397Z,1003.60
2018-10-06T09:20:39.365Z,1003.60
2018-10-06T09:21:39.335Z,1003.60
2018-10-06T09:22:39.302Z,1003.58
2018-10-06T09:23:39.305Z,1003.59
2018-10-06T09:24:39.238Z,1003.57
2018-10-06T09:25:39.209Z,1003.58
2018-10-06T09:26:39.177Z,1003.57
2018-10-06T09:27:39.145Z,1003.62
2018-10-06T09:28:39.132Z,1003.56
2018-10-06T09:29:39.087Z,1003.61
2018-10-06T09:30:39.055Z,1003.60
2018-10-06T09:31:39.027Z,1003.62
2018-10-06T09:32:38.996Z,1003.58
2018-10-06T09:33:38.966Z,1003.57
2018-10-06T09:34:38.941Z,1003.57
2018-10-06T09:35:38.903Z,1003.56
2018-10-06T09:36:38.869Z,1003.55
2018-10-06T09:37:38.843Z,1003.56
2018-10-06T09:38:38.816Z,1003.48
2018-10-06T09:39:38.798Z,1003.49
2018-10-06T09:40:38.753Z,1003.47
2018-10-06T09:41:38.721Z,1003.47
2018-10-06T09:42:38.829Z,1003.50
2018-10-06T09:43:38.661Z,1003.47
2018-10-06T09:44:38.685Z,1003.46
2018-10-06T09:45:38.601Z,1003.38
2018-10-06T09:46:38.573Z,1003.38
2018-10-06T09:47:38.551Z,1003.41
2018-10-06T09:48:38.520Z,1003.36
2018-10-06T09:49:38.491Z,1003.40
2018-10-06T09:50:38.451Z,1003.39
2018-10-06T09:51:38.421Z,1003.38
2018-10-06T09:52:38.394Z,1003.37
2018-10-06T09:53:38.393Z,1003.36
2018-10-06T09:54:38.354Z,1003.33
2018-10-06T09:55:38.310Z,1003.35
2018-10-06T09:56:38.275Z,1003.36
2018-10-06T09:57:38.244Z,1003.34
2018-10-06T09:58:38.213Z,1003.32
2018-10-06T09:59:38.192Z,1003.31
2018-10-06T10:00:38.168Z,1003.32
2018-10-06T10:01:38.127Z,1003.29
2018-10-06T10:02:38.098Z,1003.28
2018-10-06T10:03:38.068Z,1003.25
2018-10-06T10:04:38.039Z,1003.24
2018-10-06T10:05:38.066Z,1003.21
2018-10-06T10:06:37.983Z,1003.18
2018-10-06T10:07:37.948Z,1003.19
2018-10-06T10:08:37.929Z,1003.19
2018-10-06T10:09:37.956Z,1003.14
2018-10-06T10:10:37.872Z,1003.14
2018-10-06T10:11:37.832Z,1003.15
2018-10-06T10:12:37.900Z,1003.13
2018-10-06T10:13:37.775Z,1003.11
2018-10-06T10:14:37.743Z,1003.13
2018-10-06T10:15:37.724Z,1003.04
2018-10-06T10:16:37.685Z,1003.05
2018-10-06T10:17:37.783Z,1003.05
2018-10-06T10:18:37.627Z,1003.03
2018-10-06T10:19:37.601Z,1003.03
2018-10-06T10:20:37.577Z,1002.99
2018-10-06T10:21:37.541Z,1003.00
2018-10-06T10:22:37.580Z,1002.96
2018-10-06T10:23:37.507Z,1002.96
2018-10-06T10:24:37.457Z,1002.98
2018-10-06T10:25:37.439Z,1002.94
2018-10-06T10:26:37.394Z,1002.94
2018-10-06T10:27:37.365Z,1002.96
2018-10-06T10:28:37.347Z,1002.93
2018-10-06T10:29:37.313Z,1002.87
2018-10-06T10:30:37.287Z,1002.88
2018-10-06T10:31:37.259Z,1002.86
2018-10-06T10:32:37.233Z,1002.86
2018-10-06T10:33:37.193Z,1002.83
2018-10-06T10:34:37.233Z,1002.83
2018-10-06T10:35:37.145Z,1002.84
2018-10-06T10:36:37.106Z,1002.87
2018-10-06T10:37:37.079Z,1002.80
2018-10-06T10:38:37.060Z,1002.78
2018-10-06T10:39:37.268Z,1002.75
2018-10-06T10:40:36.996Z,1002.76
2018-10-06T10:41:36.973Z,1002.74
2018-10-06T10:42:36.932Z,1002.72
2018-10-06T10:43:36.905Z,1002.74
2018-10-06T10:44:36.880Z,1002.69
2018-10-06T10:45:36.845Z,1002.64
2018-10-06T10:46:36.827Z,1002.66
2018-10-06T10:47:36.800Z,1002.63
2018-10-06T10:48:36.761Z,1002.61
2018-10-06T10:49:36.761Z,1002.59
2018-10-06T10:50:36.714Z,1002.56
2018-10-06T10:51:36.686Z,1002.56
2018-10-06T10:52:36.651Z,1002.59
2018-10-06T10:53:36.624Z,1002.60
2018-10-06T10:54:36.619Z,1002.58
2018-10-06T10:55:36.594Z,1002.54
2018-10-06T10:56:36.547Z,1002.55
2018-10-06T10:57:36.583Z,1002.53
2018-10-06T10:58:36.477Z,1002.54
2018-10-06T10:59:36.568Z,1002.50
2018-10-06T11:00:36.528Z,1002.52
2018-10-06T11:01:36.405Z,1002.49
2018-10-06T11:02:36.366Z,1002.49
2018-10-06T11:03:36.342Z,1002.46
2018-10-06T11:04:36.317Z,1002.43
2018-10-06T11:05:36.286Z,1002.45
2018-10-06T11:06:36.266Z,1002.46
2018-10-06T11:07:36.223Z,1002.44
2018-10-06T11:08:36.198Z,1002.43
2018-10-06T11:09:36.176Z,1002.44
2018-10-06T11:10:36.138Z,1002.42
2018-10-06T11:11:36.112Z,1002.42
2018-10-06T11:12:36.091Z,1002.43
2018-10-06T11:13:36.056Z,1002.45
2018-10-06T11:14:36.084Z,1002.43
2018-10-06T11:15:36.005Z,1002.35
2018-10-06T11:16:35.971Z,1002.35
2018-10-06T11:17:35.952Z,1002.36
2018-10-06T11:18:35.919Z,1002.36
2018-10-06T11:19:35.888Z,1002.36
2018-10-06T11:20:35.860Z,1002.34
2018-10-06T11:21:35.838Z,1002.36
2018-10-06T11:22:35.818Z,1002.34
2018-10-06T11:23:35.777Z,1002.33
2018-10-06T11:24:35.748Z,1002.30
2018-10-06T11:25:35.726Z,1002.29
2018-10-06T11:26:35.690Z,1002.29
2018-10-06T11:27:35.669Z,1002.27
2018-10-06T11:28:35.637Z,1002.27
2018-10-06T11:29:35.607Z,1002.24
2018-10-06T11:30:35.584Z,1002.20
2018-10-06T11:31:35.556Z,1002.24
2018-10-06T11:32:35.549Z,1002.23
2018-10-06T11:33:35.497Z,1002.22
2018-10-06T11:34:35.469Z,1002.19
2018-10-06T11:35:35.442Z,1002.14
2018-10-06T11:36:35.417Z,1002.18
2018-10-06T11:37:35.504Z,1002.19
2018-10-06T11:38:35.364Z,1002.20
2018-10-06T11:39:35.337Z,1002.17
2018-10-06T11:40:35.305Z,1002.18
2018-10-06T11:41:35.278Z,1002.09
2018-10-06T11:42:35.251Z,1002.08
2018-10-06T11:43:35.245Z,1002.05
2018-10-06T11:44:35.192Z,1002.02
2018-10-06T11:45:35.163Z,1002.04
2018-10-06T11:46:35.136Z,1002.01
2018-10-06T11:47:35.110Z,1002.01
2018-10-06T11:48:35.093Z,1002.00
2018-10-06T11:49:35.054Z,1002.00
2018-10-06T11:50:35.027Z,1001.95
2018-10-06T11:51:35.000Z,1001.98
2018-10-06T11:52:34.971Z,1001.95
2018-10-06T11:53:34.950Z,1001.93
2018-10-06T11:54:34.925Z,1001.98
2018-10-06T11:55:34.889Z,1001.93
2018-10-06T11:56:34.861Z,1001.96
2018-10-06T11:57:34.838Z,1001.93
2018-10-06T11:58:34.816Z,1001.91
2018-10-06T11:59:34.783Z,1001.91
2018-10-06T12:00:34.783Z,1001.90
2018-10-06T12:01:34.726Z,1001.92
2018-10-06T12:02:34.697Z,1001.89
2018-10-06T12:03:34.677Z,1001.88
2018-10-06T12:04:34.642Z,1001.88
2018-10-06T12:05:34.668Z,1001.84